ADDS METAR Data INFO
IDs: Format: Raw Decoded Include TAF

Data at: 0935 UTC 11 Dec 2017

KGIF 110853Z AUTO 34008KT 10SM CLR 07/03 A3030 RMK AO2 SLP259 T00720033 55005
KGIF 110753Z AUTO 33004KT 10SM CLR 06/02 A3030 RMK AO2 SLP257 T00560022
KGIF 110653Z AUTO 29003KT 10SM CLR 05/02 A3031 RMK AO2 SLP261 T00500022
KGIF 110553Z AUTO 32004KT 10SM CLR 07/02 A3031 RMK AO2 SLP264 T00670022 10094 20044 58009
KGIF 110453Z AUTO 31004KT 10SM CLR 05/02 A3033 RMK AO2 SLP269 T00500017 401500039
KGIF 110353Z AUTO 31003KT 10SM CLR 07/01 A3034 RMK AO2 SLP272 T00720011
KGIF 110253Z AUTO 30004KT 10SM CLR 08/01 A3034 RMK AO2 SLP274 T00780011 51013
KGIF 110153Z AUTO 32005KT 10SM CLR 08/00 A3033 RMK AO2 SLP269 T00780000
KGIF 110053Z AUTO 31007KT 10SM CLR 08/00 A3032 RMK AO2 SLP267 T00830000
KGIF 102353Z AUTO 30009KT 10SM CLR 09/00 A3030 RMK AO2 SLP261 T00890000 10150 20089 53014
KGIF 102253Z AUTO 32004KT 10SM CLR 11/M01 A3028 RMK AO2 SLP255 T01111006
KGIF 102153Z AUTO 33004KT 10SM CLR 13/M02 A3027 RMK AO2 SLP250 T01331022
KGIF 102053Z AUTO 34009KT 10SM CLR 14/M01 A3026 RMK AO2 SLP246 T01441011 56010
KGIF 101953Z AUTO VRB04KT 10SM CLR 14/M02 A3027 RMK AO2 SLP249 T01441022
KGIF 101853Z AUTO 34007KT 10SM CLR 14/M01 A3027 RMK AO2 SLP249 T01391011
KGIF 101753Z AUTO 34008KT 10SM CLR 13/M01 A3029 RMK AO2 SLP256 T01281006 10128 20039 58022
KGIF 101653Z AUTO 36008KT 10SM CLR 12/00 A3033 RMK AO2 SLP268 T01170000
KGIF 101553Z AUTO 36011KT 10SM CLR 10/00 A3034 RMK AO2 SLP274 T01000000
KGIF 101453Z AUTO 01011KT 10SM CLR 08/01 A3036 RMK AO2 SLP279 T00830006 53020
KGIF 101353Z AUTO 33010KT 10SM CLR 06/01 A3033 RMK AO2 SLP271 T00610006
KGIF 101253Z AUTO 34013KT 10SM CLR 05/M01 A3032 RMK AO2 SLP266 T00501006
KGIF 101153Z AUTO 33013KT 10SM CLR 04/M01 A3030 RMK AO2 SLP259 70002 T00441011 10067 20039 53017
KGIF 101053Z AUTO 34012KT 10SM CLR 04/M01 A3027 RMK AO2 SLP251 T00441011
KGIF 100953Z AUTO 35013KT 10SM CLR 05/M01 A3025 RMK AO2 SLP245 T00501006
KGIF 100853Z AUTO 34014G20KT 10SM CLR 06/M01 A3025 RMK AO2 SLP242 T00561006 53012
KGIF 100753Z AUTO 33011KT 10SM CLR 06/01 A3023 RMK AO2 SLP237 T00560006
KGIF 100653Z AUTO 34009KT 10SM CLR 07/01 A3022 RMK AO2 SLP233 T00670011
KGIF 100553Z AUTO 33010KT 10SM CLR 07/01 A3021 RMK AO2 SLP230 T00670011 10100 20061 51013
KGIF 100453Z AUTO 34011KT 10SM CLR 07/02 A3021 RMK AO2 SLP229 T00720022 402280067
KGIF 100353Z AUTO 34012KT 10SM CLR 08/03 A3020 RMK AO2 SLP225 T00780033
KGIF 100253Z AUTO 33009KT 10SM CLR 08/04 A3018 RMK AO2 SLP217 T00780044 51025
KGIF 100153Z AUTO 33009KT 10SM CLR 09/06 A3016 RMK AO2 SLP211 T00890056
KGIF 100053Z AUTO 32008KT 10SM CLR 09/05 A3013 RMK AO2 SLP200 T00940050
KGIF 092353Z AUTO 30009KT 10SM CLR 10/06 A3010 RMK AO2 SLP191 60000 T01000056 10133 20100 53024
KGIF 092253Z AUTO 31008KT 10SM FEW041 11/08 A3007 RMK AO2 SLP179 T01110083
KGIF 092216Z AUTO 32009KT 10SM FEW019 SCT024 BKN034 11/08 A3005 RMK AO2 T01110083
KGIF 092153Z AUTO 31007KT 10SM BKN022 BKN027 OVC047 12/09 A3005 RMK AO2 SLP173 T01170089